Time;durP1;ratioP1;P1;durP2;ratioP2;P2;SDS_P1;SDS_P2;PMS_P1;PMS_P2;Temp;Humidity;BMP_temperature;BMP_pressure;BME280_temperature;BME280_humidity;BME280_pressure;Samples;Min_cycle;Max_cycle;Signal;HPM_P1;HPM_P2
2023/04/15 00:00:12;;;;;;;10.60;6.85;;;;;;;;;;5050480;28;20420;-82
2023/04/15 00:02:38;;;;;;;12.27;7.35;;;;;;;;;;5034943;28;20443;-83
2023/04/15 00:05:05;;;;;;;9.70;7.07;;;;;;;;;;5017808;28;20427;-82
2023/04/15 00:07:31;;;;;;;10.00;7.50;;;;;;;;;;5013485;28;20459;-82
2023/04/15 00:09:58;;;;;;;9.88;6.90;;;;;;;;;;5031397;28;20418;-82
2023/04/15 00:12:24;;;;;;;9.70;7.13;;;;;;;;;;5041157;28;20449;-82
2023/04/15 00:14:51;;;;;;;9.77;7.35;;;;;;;;;;5034931;28;20506;-81
2023/04/15 00:17:17;;;;;;;11.35;7.55;;;;;;;;;;5033867;28;20439;-80
2023/04/15 00:19:46;;;;;;;9.85;7.10;;;;;;;;;;5028754;28;20416;-81
2023/04/15 00:22:12;;;;;;;8.73;7.37;;;;;;;;;;5033951;28;20468;-83
2023/04/15 00:24:39;;;;;;;8.75;7.15;;;;;;;;;;5051478;28;20503;-81
2023/04/15 00:27:05;;;;;;;10.17;7.40;;;;;;;;;;5034306;28;20421;-81
2023/04/15 00:29:31;;;;;;;10.77;7.03;;;;;;;;;;5018347;28;20435;-81
2023/04/15 00:31:57;;;;;;;10.05;7.00;;;;;;;;;;5034251;28;20427;-81
2023/04/15 00:34:23;;;;;;;8.82;6.60;;;;;;;;;;5017875;28;20489;-81
2023/04/15 00:36:51;;;;;;;8.82;6.68;;;;;;;;;;5017592;28;20434;-81
2023/04/15 00:39:17;;;;;;;10.35;7.05;;;;;;;;;;5034091;28;20426;-81
2023/04/15 00:41:44;;;;;;;8.55;6.65;;;;;;;;;;5018922;28;20431;-81
2023/04/15 00:44:10;;;;;;;8.98;6.80;;;;;;;;;;5037204;28;20474;-81
2023/04/15 00:46:38;;;;;;;8.10;6.90;;;;;;;;;;5037913;28;20427;-81
2023/04/15 00:49:05;;;;;;;9.13;6.95;;;;;;;;;;5037676;28;20478;-81
2023/04/15 00:51:32;;;;;;;9.30;7.10;;;;;;;;;;5038454;28;20424;-82
2023/04/15 00:53:58;;;;;;;7.57;6.77;;;;;;;;;;5038176;28;20428;-81
2023/04/15 00:56:25;;;;;;;10.07;6.90;;;;;;;;;;5038086;28;20430;-81
2023/04/15 00:58:52;;;;;;;8.57;7.33;;;;;;;;;;5029516;28;20431;-86
2023/04/15 01:01:21;;;;;;;8.80;7.25;;;;;;;;;;5037976;28;20424;-88
2023/04/15 01:03:49;;;;;;;9.18;7.35;;;;;;;;;;5038258;28;20418;-88
2023/04/15 01:06:15;;;;;;;9.73;7.45;;;;;;;;;;5035595;28;20426;-88
2023/04/15 01:08:41;;;;;;;9.77;7.20;;;;;;;;;;5038546;28;20416;-89
2023/04/15 01:11:08;;;;;;;9.57;7.40;;;;;;;;;;5010870;28;20429;-89
2023/04/15 01:13:34;;;;;;;11.57;7.32;;;;;;;;;;5027827;28;20419;-87
2023/04/15 01:16:01;;;;;;;10.40;7.43;;;;;;;;;;5037734;28;20423;-82
2023/04/15 01:18:27;;;;;;;8.68;7.25;;;;;;;;;;5021371;28;20420;-82
2023/04/15 01:20:53;;;;;;;8.80;7.30;;;;;;;;;;5037479;28;20519;-83
2023/04/15 01:23:21;;;;;;;8.05;7.20;;;;;;;;;;5033914;28;20445;-82
2023/04/15 01:25:48;;;;;;;10.57;7.27;;;;;;;;;;5047069;28;20415;-82
2023/04/15 01:28:14;;;;;;;8.43;7.45;;;;;;;;;;5054826;28;20412;-83
2023/04/15 01:30:41;;;;;;;8.98;7.03;;;;;;;;;;5021076;28;20485;-82
2023/04/15 01:33:07;;;;;;;8.00;7.17;;;;;;;;;;5020633;28;20499;-84
2023/04/15 01:35:33;;;;;;;9.52;7.10;;;;;;;;;;5037685;28;20436;-84
2023/04/15 01:38:07;;;;;;;10.02;7.07;;;;;;;;;;5020989;28;20428;-83
2023/04/15 01:40:33;;;;;;;8.52;7.20;;;;;;;;;;5055057;28;20416;-83
2023/04/15 01:43:00;;;;;;;8.00;6.97;;;;;;;;;;5037512;28;20419;-89
2023/04/15 01:45:26;;;;;;;9.32;7.15;;;;;;;;;;5020828;28;20435;-84
2023/04/15 01:47:52;;;;;;;9.50;7.30;;;;;;;;;;5037496;28;20411;-88
2023/04/15 01:50:19;;;;;;;8.37;7.07;;;;;;;;;;5037551;28;20416;-86
2023/04/15 01:52:45;;;;;;;8.30;6.73;;;;;;;;;;5026904;28;20420;-87
2023/04/15 01:55:12;;;;;;;7.73;6.77;;;;;;;;;;5020093;28;20442;-86
2023/04/15 01:57:41;;;;;;;9.52;7.20;;;;;;;;;;5037052;28;20416;-86
2023/04/15 02:00:07;;;;;;;8.52;7.60;;;;;;;;;;5037075;28;20427;-86
2023/04/15 02:02:36;;;;;;;10.05;7.68;;;;;;;;;;5014840;28;20435;-87
2023/04/15 02:05:04;;;;;;;8.55;7.20;;;;;;;;;;5037358;28;20422;-87
2023/04/15 02:07:33;;;;;;;8.25;7.45;;;;;;;;;;5036834;28;20491;-87
2023/04/15 02:09:59;;;;;;;8.55;7.53;;;;;;;;;;5054155;28;20537;-88
2023/04/15 02:12:26;;;;;;;8.18;7.38;;;;;;;;;;5020776;28;20436;-88
2023/04/15 02:14:52;;;;;;;9.27;7.47;;;;;;;;;;5020460;28;20439;-87
2023/04/15 02:17:18;;;;;;;9.07;7.45;;;;;;;;;;5037047;28;20489;-87
2023/04/15 02:19:44;;;;;;;9.02;7.50;;;;;;;;;;5015187;28;20413;-87
2023/04/15 02:22:17;;;;;;;9.23;7.90;;;;;;;;;;5011533;28;20434;-83
2023/04/15 02:24:43;;;;;;;10.63;8.10;;;;;;;;;;5021047;28;20420;-82
2023/04/15 02:27:09;;;;;;;9.57;8.10;;;;;;;;;;5016963;28;20418;-83
2023/04/15 02:29:35;;;;;;;8.35;7.55;;;;;;;;;;5035762;28;20423;-83
2023/04/15 02:32:01;;;;;;;9.05;8.07;;;;;;;;;;5031400;28;20420;-82
2023/04/15 02:34:27;;;;;;;9.43;7.63;;;;;;;;;;5033822;28;20455;-81
2023/04/15 02:36:56;;;;;;;9.00;7.53;;;;;;;;;;5019406;28;20601;-81
2023/04/15 02:39:22;;;;;;;9.57;7.78;;;;;;;;;;5036745;28;20497;-83
2023/04/15 02:41:50;;;;;;;8.65;7.53;;;;;;;;;;5036144;28;20427;-83
2023/04/15 02:44:20;;;;;;;9.20;7.68;;;;;;;;;;5036560;28;20427;-83
2023/04/15 02:46:49;;;;;;;9.57;7.90;;;;;;;;;;5020182;28;20431;-83
2023/04/15 02:49:15;;;;;;;9.35;8.30;;;;;;;;;;5019697;28;20416;-83
2023/04/15 02:51:41;;;;;;;8.70;7.80;;;;;;;;;;5035865;28;20423;-83
2023/04/15 02:54:07;;;;;;;9.18;8.20;;;;;;;;;;5019790;28;20474;-83
2023/04/15 02:56:33;;;;;;;9.98;8.20;;;;;;;;;;5036087;28;20432;-82
2023/04/15 02:58:59;;;;;;;9.85;8.77;;;;;;;;;;5023525;28;20491;-82
2023/04/15 03:01:26;;;;;;;9.35;8.18;;;;;;;;;;5029808;28;20421;-82
2023/04/15 03:03:52;;;;;;;9.47;8.33;;;;;;;;;;5032840;28;20421;-82
2023/04/15 03:06:18;;;;;;;9.63;8.60;;;;;;;;;;5032629;28;20433;-82
2023/04/15 03:08:44;;;;;;;10.93;8.77;;;;;;;;;;5019630;28;20466;-82
2023/04/15 03:11:11;;;;;;;9.98;8.98;;;;;;;;;;5019058;28;20470;-87
2023/04/15 03:13:38;;;;;;;10.60;9.20;;;;;;;;;;5019609;28;20427;-88
2023/04/15 03:16:04;;;;;;;11.18;8.82;;;;;;;;;;5019155;28;20507;-82
2023/04/15 03:18:30;;;;;;;12.05;9.27;;;;;;;;;;5035828;28;20416;-82
2023/04/15 03:20:56;;;;;;;10.63;9.52;;;;;;;;;;5018863;28;20420;-82
2023/04/15 03:23:23;;;;;;;10.10;9.10;;;;;;;;;;5052452;28;20420;-82
2023/04/15 03:25:49;;;;;;;10.57;9.47;;;;;;;;;;5019407;28;20432;-81
2023/04/15 03:28:15;;;;;;;11.50;9.68;;;;;;;;;;5034940;28;20438;-81
2023/04/15 03:30:41;;;;;;;10.82;9.40;;;;;;;;;;5035265;28;20427;-82
2023/04/15 03:33:07;;;;;;;11.10;10.00;;;;;;;;;;5018893;28;20412;-82
2023/04/15 03:35:34;;;;;;;11.07;9.88;;;;;;;;;;5035024;28;20478;-82
2023/04/15 03:38:00;;;;;;;10.52;9.52;;;;;;;;;;5032284;28;20433;-82
2023/04/15 03:40:26;;;;;;;10.60;9.35;;;;;;;;;;5042048;28;20426;-81
2023/04/15 03:42:53;;;;;;;11.10;10.00;;;;;;;;;;5018158;28;20431;-82
2023/04/15 03:45:19;;;;;;;10.75;9.55;;;;;;;;;;5018832;28;20415;-88
2023/04/15 03:47:45;;;;;;;11.50;9.93;;;;;;;;;;5051529;28;20420;-88
2023/04/15 03:50:11;;;;;;;10.80;9.77;;;;;;;;;;5017835;28;20431;-88
2023/04/15 03:52:37;;;;;;;11.02;9.93;;;;;;;;;;5018202;28;20453;-88
2023/04/15 03:55:03;;;;;;;10.90;9.80;;;;;;;;;;5050170;28;20432;-88
2023/04/15 03:57:30;;;;;;;11.18;9.98;;;;;;;;;;5049265;28;20408;-88
2023/04/15 03:59:56;;;;;;;11.00;9.90;;;;;;;;;;5033444;28;20506;-88
2023/04/15 04:02:22;;;;;;;11.23;10.13;;;;;;;;;;5034510;28;20424;-83
2023/04/15 04:04:48;;;;;;;11.43;10.30;;;;;;;;;;5005987;28;20471;-83
2023/04/15 04:07:15;;;;;;;11.40;10.30;;;;;;;;;;5029985;28;20456;-83
2023/04/15 04:09:41;;;;;;;12.65;11.10;;;;;;;;;;5017585;28;20491;-83
2023/04/15 04:12:07;;;;;;;11.40;10.30;;;;;;;;;;5019368;28;20415;-83
2023/04/15 04:14:34;;;;;;;10.23;9.07;;;;;;;;;;5035985;28;20212;-83
2023/04/15 04:17:00;;;;;;;11.20;10.00;;;;;;;;;;5018994;28;20451;-87
2023/04/15 04:19:26;;;;;;;11.98;10.68;;;;;;;;;;5055099;28;20420;-87
2023/04/15 04:21:52;;;;;;;12.50;11.20;;;;;;;;;;5036607;28;20443;-87
2023/04/15 04:24:18;;;;;;;12.90;11.60;;;;;;;;;;5051337;28;20507;-87
2023/04/15 04:26:44;;;;;;;12.40;11.23;;;;;;;;;;5038106;28;20454;-87
2023/04/15 04:29:10;;;;;;;12.80;11.50;;;;;;;;;;5022176;28;20503;-88
2023/04/15 04:31:36;;;;;;;12.80;11.50;;;;;;;;;;5038000;28;20477;-87
2023/04/15 04:34:02;;;;;;;12.85;11.45;;;;;;;;;;5021578;28;20444;-87
2023/04/15 04:36:28;;;;;;;13.35;11.55;;;;;;;;;;5019461;28;20448;-87
2023/04/15 04:38:55;;;;;;;14.05;11.93;;;;;;;;;;5038304;28;20427;-87
2023/04/15 04:41:21;;;;;;;13.02;11.73;;;;;;;;;;5019299;28;20572;-87
2023/04/15 04:43:47;;;;;;;12.80;11.60;;;;;;;;;;5027011;28;20410;-87
2023/04/15 04:46:13;;;;;;;13.50;12.10;;;;;;;;;;5038126;28;20411;-87
2023/04/15 04:48:39;;;;;;;13.33;11.93;;;;;;;;;;5021705;28;20546;-87
2023/04/15 04:51:05;;;;;;;13.05;11.75;;;;;;;;;;5022013;28;20430;-82
2023/04/15 04:53:31;;;;;;;13.63;12.23;;;;;;;;;;5037178;28;20497;-82
2023/04/15 04:55:57;;;;;;;13.55;12.30;;;;;;;;;;5038011;28;20459;-82
2023/04/15 04:58:23;;;;;;;13.40;12.00;;;;;;;;;;5039044;28;20411;-82
2023/04/15 05:00:49;;;;;;;13.73;12.35;;;;;;;;;;5038040;28;20416;-82
2023/04/15 05:03:15;;;;;;;13.50;12.20;;;;;;;;;;5038114;28;20439;-82
2023/04/15 05:05:42;;;;;;;13.75;12.35;;;;;;;;;;5021222;28;20423;-81
2023/04/15 05:08:08;;;;;;;13.48;12.18;;;;;;;;;;5039006;28;20415;-82
2023/04/15 05:10:34;;;;;;;13.13;10.97;;;;;;;;;;5038450;28;20198;-82
2023/04/15 05:13:00;;;;;;;13.63;11.98;;;;;;;;;;5022091;28;20507;-82
2023/04/15 05:15:26;;;;;;;13.93;12.63;;;;;;;;;;5038104;28;20515;-82
2023/04/15 05:17:52;;;;;;;13.47;11.73;;;;;;;;;;5021719;28;20225;-82
2023/04/15 05:20:18;;;;;;;14.27;12.87;;;;;;;;;;5021279;28;20428;-83
2023/04/15 05:22:44;;;;;;;14.73;13.23;;;;;;;;;;5021574;28;20428;-82
2023/04/15 05:25:10;;;;;;;13.50;11.10;;;;;;;;;;5054726;28;20211;-82
2023/04/15 05:27:36;;;;;;;13.17;11.77;;;;;;;;;;5037376;28;20194;-81
2023/04/15 05:30:02;;;;;;;12.70;11.40;;;;;;;;;;5054599;28;20274;-81
2023/04/15 05:32:28;;;;;;;13.37;11.67;;;;;;;;;;5054395;28;20245;-81
2023/04/15 05:34:55;;;;;;;12.60;11.23;;;;;;;;;;5038203;28;20324;-81
2023/04/15 05:37:21;;;;;;;13.60;11.60;;;;;;;;;;5035574;28;20180;-81
2023/04/15 05:39:47;;;;;;;15.05;13.55;;;;;;;;;;5037351;28;20428;-81
2023/04/15 05:42:14;;;;;;;13.47;12.07;;;;;;;;;;5038605;28;20249;-81
2023/04/15 05:44:40;;;;;;;13.80;12.30;;;;;;;;;;5038375;28;20236;-82
2023/04/15 05:47:07;;;;;;;13.03;11.60;;;;;;;;;;5018230;28;20192;-81
2023/04/15 05:49:33;;;;;;;14.88;13.30;;;;;;;;;;5054222;28;20424;-82
2023/04/15 05:51:59;;;;;;;13.27;11.97;;;;;;;;;;5020640;28;20273;-82
2023/04/15 05:54:26;;;;;;;15.10;13.60;;;;;;;;;;5036096;28;20436;-81
2023/04/15 05:56:52;;;;;;;15.35;13.85;;;;;;;;;;5052133;28;20499;-81
2023/04/15 05:59:18;;;;;;;15.87;14.27;;;;;;;;;;5054375;28;20450;-81
2023/04/15 06:01:44;;;;;;;15.60;14.20;;;;;;;;;;5032989;28;20440;-82
2023/04/15 06:04:10;;;;;;;15.23;13.82;;;;;;;;;;5018341;28;20435;-82
2023/04/15 06:06:37;;;;;;;14.70;13.20;;;;;;;;;;5019635;28;20482;-81
2023/04/15 06:09:03;;;;;;;14.80;13.40;;;;;;;;;;5036416;28;20416;-81
2023/04/15 06:11:29;;;;;;;15.63;14.13;;;;;;;;;;5035033;28;20443;-82
2023/04/15 06:13:56;;;;;;;15.13;13.63;;;;;;;;;;5033941;28;20473;-82
2023/04/15 06:16:22;;;;;;;14.73;13.30;;;;;;;;;;5033513;28;20427;-82
2023/04/15 06:18:48;;;;;;;13.07;11.68;;;;;;;;;;5017744;28;20412;-81
2023/04/15 06:21:15;;;;;;;15.13;13.63;;;;;;;;;;5035694;28;20424;-82
2023/04/15 06:23:41;;;;;;;15.02;13.52;;;;;;;;;;5034888;28;20416;-81
2023/04/15 06:26:07;;;;;;;14.45;12.95;;;;;;;;;;5035686;28;20495;-81
2023/04/15 06:28:36;;;;;;;13.88;12.50;;;;;;;;;;5019103;28;20448;-82
2023/04/15 06:31:02;;;;;;;12.73;11.43;;;;;;;;;;5036727;28;20404;-83
2023/04/15 06:33:28;;;;;;;12.15;11.05;;;;;;;;;;5037029;28;20411;-83
2023/04/15 06:35:54;;;;;;;12.48;11.32;;;;;;;;;;5052602;28;20489;-83
2023/04/15 06:38:20;;;;;;;12.00;10.80;;;;;;;;;;5031734;28;20470;-83
2023/04/15 06:40:46;;;;;;;11.48;10.32;;;;;;;;;;5034283;28;20419;-83
2023/04/15 06:43:12;;;;;;;11.88;10.77;;;;;;;;;;5030871;28;20437;-83
2023/04/15 06:45:39;;;;;;;11.85;10.75;;;;;;;;;;5026549;28;20417;-83
2023/04/15 06:48:05;;;;;;;12.35;11.20;;;;;;;;;;5052639;28;20505;-83
2023/04/15 06:50:31;;;;;;;13.20;12.00;;;;;;;;;;5048876;28;20450;-87
2023/04/15 06:52:57;;;;;;;14.40;13.10;;;;;;;;;;5017041;28;20424;-88
2023/04/15 06:55:23;;;;;;;14.60;13.20;;;;;;;;;;5030374;28;20467;-87
2023/04/15 06:57:49;;;;;;;15.70;14.18;;;;;;;;;;5036840;28;20474;-88
2023/04/15 07:00:16;;;;;;;14.48;13.00;;;;;;;;;;5019915;28;20438;-82
2023/04/15 07:02:42;;;;;;;14.80;13.32;;;;;;;;;;5019482;28;20412;-82
2023/04/15 07:05:08;;;;;;;13.23;12.02;;;;;;;;;;5019924;28;20464;-83
2023/04/15 07:07:35;;;;;;;12.90;11.60;;;;;;;;;;5019509;28;20427;-84
2023/04/15 07:10:01;;;;;;;12.70;11.50;;;;;;;;;;5019822;28;20442;-82
2023/04/15 07:12:27;;;;;;;12.55;11.35;;;;;;;;;;5034708;28;20417;-84
2023/04/15 07:14:53;;;;;;;12.20;11.05;;;;;;;;;;5019617;28;20490;-84
2023/04/15 07:17:19;;;;;;;11.32;10.23;;;;;;;;;;5032268;28;20457;-83
2023/04/15 07:19:46;;;;;;;11.27;10.18;;;;;;;;;;5016451;28;20444;-83
2023/04/15 07:22:12;;;;;;;10.52;9.52;;;;;;;;;;5035156;28;20408;-83
2023/04/15 07:24:38;;;;;;;10.60;9.60;;;;;;;;;;5031781;28;20544;-82
2023/04/15 07:27:04;;;;;;;10.80;9.90;;;;;;;;;;5032633;28;20436;-83
2023/04/15 07:29:30;;;;;;;10.77;9.70;;;;;;;;;;5040389;28;20431;-83
2023/04/15 07:31:56;;;;;;;11.23;10.23;;;;;;;;;;5035923;28;20415;-83
2023/04/15 07:34:23;;;;;;;10.60;9.60;;;;;;;;;;5031901;28;20440;-82
2023/04/15 07:36:50;;;;;;;10.55;9.52;;;;;;;;;;5032260;28;20410;-83
2023/04/15 07:39:17;;;;;;;10.57;9.57;;;;;;;;;;5048969;28;20420;-82
2023/04/15 07:41:42;;;;;;;10.98;9.98;;;;;;;;;;5018738;28;20419;-83
2023/04/15 07:44:09;;;;;;;11.30;10.27;;;;;;;;;;5019307;28;20504;-83
2023/04/15 07:46:36;;;;;;;10.98;9.98;;;;;;;;;;5014117;28;20456;-83
2023/04/15 07:49:02;;;;;;;10.55;9.55;;;;;;;;;;5042751;23;20460;-83
2023/04/15 07:51:28;;;;;;;10.67;9.60;;;;;;;;;;5011995;28;20502;-84
2023/04/15 07:53:55;;;;;;;10.82;9.75;;;;;;;;;;5014085;28;20464;-83
2023/04/15 07:56:21;;;;;;;9.95;9.05;;;;;;;;;;5011899;28;20456;-80
2023/04/15 07:58:47;;;;;;;9.55;8.70;;;;;;;;;;5011292;28;20436;-82
2023/04/15 08:01:13;;;;;;;9.60;8.70;;;;;;;;;;4979781;28;20790;-83
2023/04/15 08:03:39;;;;;;;9.65;8.65;;;;;;;;;;4986067;28;20468;-83
2023/04/15 08:06:05;;;;;;;8.95;8.15;;;;;;;;;;4995638;28;20411;-83
2023/04/15 08:08:31;;;;;;;9.02;8.23;;;;;;;;;;4982313;28;20414;-83
2023/04/15 08:10:58;;;;;;;8.40;7.60;;;;;;;;;;4995550;28;20422;-83
2023/04/15 08:13:24;;;;;;;8.38;7.57;;;;;;;;;;5018835;28;20426;-83
2023/04/15 08:15:53;;;;;;;7.97;7.20;;;;;;;;;;5012392;28;20443;-84
2023/04/15 08:18:19;;;;;;;7.93;7.13;;;;;;;;;;5009984;28;20480;-83
2023/04/15 08:20:45;;;;;;;7.10;6.50;;;;;;;;;;4998758;28;20453;-81
2023/04/15 08:23:11;;;;;;;7.15;6.40;;;;;;;;;;5020703;28;20402;-81
2023/04/15 08:25:37;;;;;;;6.45;5.85;;;;;;;;;;5032549;28;20421;-81
2023/04/15 08:28:06;;;;;;;6.07;5.55;;;;;;;;;;4999361;28;20425;-82
2023/04/15 08:30:32;;;;;;;6.30;5.70;;;;;;;;;;5031029;28;20508;-82
2023/04/15 08:32:58;;;;;;;5.72;5.22;;;;;;;;;;5006492;28;20496;-82
2023/04/15 08:35:24;;;;;;;5.47;4.97;;;;;;;;;;5003798;28;20529;-82
2023/04/15 08:37:51;;;;;;;5.90;4.80;;;;;;;;;;4980682;28;20309;-83
2023/04/15 08:40:17;;;;;;;6.30;4.87;;;;;;;;;;5030577;28;20173;-83
2023/04/15 08:42:48;;;;;;;5.13;4.63;;;;;;;;;;4998685;28;20280;-82
2023/04/15 08:45:14;;;;;;;5.67;5.07;;;;;;;;;;5029060;28;20256;-84
2023/04/15 08:47:42;;;;;;;5.57;5.07;;;;;;;;;;4996127;28;20208;-82
2023/04/15 08:50:09;;;;;;;5.47;4.67;;;;;;;;;;5012754;28;20189;-82
2023/04/15 08:52:35;;;;;;;5.10;4.60;;;;;;;;;;4986870;28;20269;-82
2023/04/15 08:55:02;;;;;;;7.32;4.70;;;;;;;;;;4995861;28;20431;-82
2023/04/15 08:57:28;;;;;;;6.03;4.30;;;;;;;;;;5018042;28;20211;-82
2023/04/15 08:59:58;;;;;;;5.20;4.70;;;;;;;;;;5015292;28;20222;-82
2023/04/15 09:02:25;;;;;;;5.20;4.70;;;;;;;;;;5011668;28;20247;-82
2023/04/15 09:04:51;;;;;;;5.20;4.63;;;;;;;;;;4985151;28;20180;-82
2023/04/15 09:07:17;;;;;;;5.87;5.27;;;;;;;;;;5019614;28;20235;-82
2023/04/15 09:09:43;;;;;;;5.33;4.83;;;;;;;;;;5002684;28;20282;-82
2023/04/15 09:12:10;;;;;;;5.03;4.53;;;;;;;;;;5036319;28;20184;-82
2023/04/15 09:14:37;;;;;;;5.13;4.68;;;;;;;;;;5028352;28;20441;-82
2023/04/15 09:17:03;;;;;;;5.40;4.90;;;;;;;;;;5002331;28;20427;-82
2023/04/15 09:19:32;;;;;;;5.93;5.32;;;;;;;;;;5001559;28;20421;-82
2023/04/15 09:21:59;;;;;;;6.40;5.80;;;;;;;;;;5035660;28;20419;-81
2023/04/15 09:24:25;;;;;;;6.85;6.15;;;;;;;;;;5035810;28;20397;-85
2023/04/15 09:26:53;;;;;;;6.35;5.75;;;;;;;;;;5002611;28;20475;-86
2023/04/15 09:29:19;;;;;;;6.60;6.00;;;;;;;;;;5034607;28;20416;-86
2023/04/15 09:31:46;;;;;;;7.07;6.10;;;;;;;;;;5035902;28;20428;-86
2023/04/15 09:34:12;;;;;;;6.72;6.13;;;;;;;;;;5018162;28;20433;-87
2023/04/15 09:36:51;;;;;;;6.22;5.60;;;;;;;;;;5018279;28;20405;-82
2023/04/15 09:39:17;;;;;;;7.00;6.40;;;;;;;;;;5018108;28;20417;-82
2023/04/15 09:41:44;;;;;;;6.25;5.65;;;;;;;;;;5019224;28;20421;-82
2023/04/15 09:44:26;;;;;;;6.50;6.00;;;;;;;;;;5019072;28;20189;-82
2023/04/15 09:46:52;;;;;;;6.63;5.50;;;;;;;;;;5019231;28;20189;-82
2023/04/15 09:49:19;;;;;;;6.43;5.80;;;;;;;;;;4994328;28;20591;-82
2023/04/15 09:51:46;;;;;;;7.05;6.18;;;;;;;;;;5035421;28;20406;-82
2023/04/15 09:54:12;;;;;;;7.18;5.68;;;;;;;;;;4997789;28;20437;-82
2023/04/15 09:56:42;;;;;;;5.63;5.10;;;;;;;;;;5016850;28;20453;-82
2023/04/15 09:59:08;;;;;;;5.43;4.90;;;;;;;;;;5035258;28;20401;-82
2023/04/15 10:01:35;;;;;;;5.70;5.20;;;;;;;;;;5013767;28;20418;-82
2023/04/15 10:04:02;;;;;;;5.63;5.13;;;;;;;;;;4990335;28;20492;-82
2023/04/15 10:06:29;;;;;;;6.00;5.13;;;;;;;;;;5013755;28;20403;-82
2023/04/15 10:08:56;;;;;;;5.80;5.30;;;;;;;;;;5020800;28;20484;-82
2023/04/15 10:11:23;;;;;;;5.50;5.00;;;;;;;;;;5034705;28;20429;-82
2023/04/15 10:13:50;;;;;;;5.40;4.90;;;;;;;;;;5033801;28;20460;-81
2023/04/15 10:16:17;;;;;;;5.38;4.90;;;;;;;;;;4981576;28;20407;-82
2023/04/15 10:18:44;;;;;;;5.43;4.93;;;;;;;;;;5013932;28;20438;-82
2023/04/15 10:21:12;;;;;;;5.45;4.78;;;;;;;;;;4997849;28;20485;-82
2023/04/15 10:23:39;;;;;;;4.45;4.05;;;;;;;;;;4991264;28;20468;-82
2023/04/15 10:26:05;;;;;;;4.60;4.20;;;;;;;;;;5017261;28;20408;-82
2023/04/15 10:28:31;;;;;;;4.95;4.45;;;;;;;;;;5017322;28;20496;-86
2023/04/15 10:30:58;;;;;;;4.75;4.35;;;;;;;;;;5017070;28;20412;-86
2023/04/15 10:33:25;;;;;;;4.80;4.22;;;;;;;;;;5000747;28;20509;-86
2023/04/15 10:35:52;;;;;;;4.43;4.03;;;;;;;;;;5017542;28;20433;-82
2023/04/15 10:38:30;;;;;;;3.83;3.53;;;;;;;;;;5017558;28;20173;-82
2023/04/15 10:41:12;;;;;;;4.03;3.63;;;;;;;;;;5014649;28;20180;-82
2023/04/15 10:43:38;;;;;;;3.87;3.47;;;;;;;;;;5014610;28;20165;-87
2023/04/15 10:46:07;;;;;;;4.80;4.33;;;;;;;;;;4997765;28;20200;-86
2023/04/15 10:48:33;;;;;;;4.80;4.00;;;;;;;;;;5016820;28;20241;-86
2023/04/15 10:51:02;;;;;;;5.20;4.43;;;;;;;;;;4997231;28;20419;-87
2023/04/15 10:53:29;;;;;;;5.32;4.55;;;;;;;;;;4987690;28;20418;-86
2023/04/15 10:55:56;;;;;;;5.25;4.75;;;;;;;;;;5013783;28;20490;-87
2023/04/15 10:58:23;;;;;;;5.05;4.55;;;;;;;;;;5018850;28;20418;-84
2023/04/15 11:00:51;;;;;;;4.40;4.00;;;;;;;;;;5010584;28;20427;-83
2023/04/15 11:03:33;;;;;;;4.35;3.80;;;;;;;;;;5009493;28;20429;-83
2023/04/15 11:06:00;;;;;;;4.13;3.72;;;;;;;;;;5012844;28;20425;-84
2023/04/15 11:08:45;;;;;;;4.03;3.63;;;;;;;;;;5012776;28;20418;-84
2023/04/15 11:11:11;;;;;;;3.93;3.10;;;;;;;;;;5022868;28;20224;-84
2023/04/15 11:13:47;;;;;;;3.63;3.33;;;;;;;;;;5027991;28;20413;-84
2023/04/15 11:16:13;;;;;;;5.40;3.30;;;;;;;;;;5017215;28;20184;-89
2023/04/15 11:18:39;;;;;;;3.63;3.30;;;;;;;;;;5033938;28;20401;-88
2023/04/15 11:21:07;;;;;;;4.27;3.80;;;;;;;;;;5000228;28;20470;-88
2023/04/15 11:23:35;;;;;;;4.18;3.67;;;;;;;;;;5034260;28;20408;-88
2023/04/15 11:26:04;;;;;;;4.00;3.57;;;;;;;;;;5017166;28;20410;-89
2023/04/15 11:28:31;;;;;;;3.33;3.03;;;;;;;;;;5016171;28;20443;-89
2023/04/15 11:30:57;;;;;;;3.60;3.30;;;;;;;;;;5016555;28;20489;-88
2023/04/15 11:33:24;;;;;;;4.68;3.25;;;;;;;;;;4998405;28;20534;-83
2023/04/15 11:35:52;;;;;;;3.87;3.47;;;;;;;;;;4996711;28;20441;-83
2023/04/15 11:38:18;;;;;;;4.83;2.90;;;;;;;;;;5014314;28;20219;-83
2023/04/15 11:40:45;;;;;;;4.72;3.17;;;;;;;;;;4980858;28;20445;-83
2023/04/15 11:43:15;;;;;;;4.60;3.10;;;;;;;;;;5032799;28;20183;-83
2023/04/15 11:45:52;;;;;;;3.03;2.73;;;;;;;;;;5027125;28;20252;-83
2023/04/15 11:48:19;;;;;;;4.83;3.10;;;;;;;;;;5029373;28;20250;-90
2023/04/15 11:50:45;;;;;;;3.95;2.80;;;;;;;;;;5021391;28;20415;-90
2023/04/15 11:53:12;;;;;;;4.13;2.75;;;;;;;;;;5013063;28;20498;-91
2023/04/15 11:55:43;;;;;;;7.00;2.70;;;;;;;;;;5025868;28;20431;-89
2023/04/15 11:58:12;;;;;;;3.85;2.60;;;;;;;;;;4996885;28;20413;-90
2023/04/15 12:00:39;;;;;;;3.33;2.70;;;;;;;;;;4996501;28;20404;-90
2023/04/15 12:03:16;;;;;;;4.20;2.60;;;;;;;;;;5010326;28;20424;-90
2023/04/15 12:06:01;;;;;;;4.40;2.40;;;;;;;;;;5019928;28;20441;-89
2023/04/15 12:08:47;;;;;;;3.38;2.58;;;;;;;;;;5015578;28;20496;-89
2023/04/15 12:11:14;;;;;;;3.37;2.40;;;;;;;;;;5015047;28;20413;-89
2023/04/15 12:13:43;;;;;;;3.45;2.42;;;;;;;;;;5019429;28;20449;-88
2023/04/15 12:16:09;;;;;;;3.78;2.50;;;;;;;;;;5015612;28;20433;-89
2023/04/15 12:18:37;;;;;;;3.20;2.30;;;;;;;;;;4995653;28;20476;-89
2023/04/15 12:21:13;;;;;;;3.97;2.50;;;;;;;;;;5006946;28;20317;-82
2023/04/15 12:23:52;;;;;;;3.10;2.50;;;;;;;;;;5025301;28;20426;-81
2023/04/15 12:26:18;;;;;;;2.97;2.30;;;;;;;;;;5010989;28;20414;-82
2023/04/15 12:28:45;;;;;;;3.23;2.30;;;;;;;;;;5010220;28;20173;-82
2023/04/15 12:31:14;;;;;;;6.27;2.27;;;;;;;;;;5032200;28;20180;-82
2023/04/15 12:33:40;;;;;;;3.60;2.13;;;;;;;;;;5020012;28;20176;-82
2023/04/15 12:36:19;;;;;;;3.40;2.10;;;;;;;;;;5007664;28;20208;-82
2023/04/15 12:38:45;;;;;;;3.03;1.90;;;;;;;;;;5000648;28;20199;-83
2023/04/15 12:41:11;;;;;;;2.93;1.90;;;;;;;;;;5019964;28;20244;-83
2023/04/15 12:43:37;;;;;;;1.73;1.40;;;;;;;;;;5019545;28;20181;-83
2023/04/15 12:46:03;;;;;;;5.10;1.70;;;;;;;;;;5003831;28;20196;-83
2023/04/15 12:48:30;;;;;;;3.60;1.80;;;;;;;;;;5019855;28;20314;-83
2023/04/15 12:50:56;;;;;;;3.37;1.83;;;;;;;;;;5002815;28;20266;-83
2023/04/15 12:53:22;;;;;;;2.97;1.83;;;;;;;;;;5019150;28;20453;-83
2023/04/15 12:55:48;;;;;;;2.05;1.85;;;;;;;;;;5007169;28;20466;-87
2023/04/15 12:58:14;;;;;;;2.13;1.60;;;;;;;;;;5019578;28;20208;-88
2023/04/15 13:00:40;;;;;;;3.80;1.80;;;;;;;;;;5019191;28;20508;-88
2023/04/15 13:03:06;;;;;;;1.80;1.47;;;;;;;;;;5019255;28;20217;-88
2023/04/15 13:05:32;;;;;;;1.63;1.50;;;;;;;;;;5036101;28;20241;-84
2023/04/15 13:07:58;;;;;;;3.13;1.70;;;;;;;;;;5019844;28;20220;-83
2023/04/15 13:10:24;;;;;;;3.40;1.53;;;;;;;;;;5003436;28;20185;-83
2023/04/15 13:12:52;;;;;;;2.67;1.70;;;;;;;;;;5020833;28;20505;-88
2023/04/15 13:15:19;;;;;;;3.60;1.67;;;;;;;;;;4984713;28;20213;-88
2023/04/15 13:17:45;;;;;;;2.83;1.80;;;;;;;;;;5029610;28;20485;-88
2023/04/15 13:20:11;;;;;;;2.28;1.85;;;;;;;;;;5019958;28;20492;-87
2023/04/15 13:22:37;;;;;;;2.45;1.60;;;;;;;;;;5015971;28;20415;-88
2023/04/15 13:25:04;;;;;;;3.85;1.52;;;;;;;;;;4983131;28;20427;-88
2023/04/15 13:27:30;;;;;;;1.53;1.20;;;;;;;;;;5016126;28;20181;-88
2023/04/15 13:29:56;;;;;;;2.75;1.40;;;;;;;;;;4983639;28;20430;-82
2023/04/15 13:32:22;;;;;;;1.98;1.48;;;;;;;;;;4982592;28;20450;-82
2023/04/15 13:34:49;;;;;;;2.05;1.30;;;;;;;;;;4998341;28;20517;-82
2023/04/15 13:37:15;;;;;;;3.25;1.50;;;;;;;;;;4989505;28;20435;-82
2023/04/15 13:39:41;;;;;;;3.42;1.70;;;;;;;;;;5017689;28;20409;-82
2023/04/15 13:42:07;;;;;;;2.58;1.45;;;;;;;;;;5001301;28;20506;-81
2023/04/15 13:44:33;;;;;;;2.63;1.30;;;;;;;;;;5017843;28;20490;-83
2023/04/15 13:46:59;;;;;;;2.33;1.50;;;;;;;;;;5033332;28;20409;-83
2023/04/15 13:49:25;;;;;;;2.10;1.45;;;;;;;;;;5001663;28;20433;-88
2023/04/15 13:51:51;;;;;;;2.88;1.50;;;;;;;;;;4998705;28;20415;-87
2023/04/15 13:54:17;;;;;;;2.88;1.50;;;;;;;;;;5002001;28;20433;-87
2023/04/15 13:56:43;;;;;;;3.92;1.58;;;;;;;;;;5017244;28;20417;-88
2023/04/15 13:59:09;;;;;;;2.30;1.65;;;;;;;;;;5001420;28;20413;-88
2023/04/15 14:01:35;;;;;;;3.85;1.90;;;;;;;;;;4998845;28;20433;-82
2023/04/15 14:04:01;;;;;;;2.40;1.70;;;;;;;;;;5000808;28;20414;-82
2023/04/15 14:06:28;;;;;;;2.97;1.80;;;;;;;;;;4999776;28;20409;-82
2023/04/15 14:08:54;;;;;;;2.53;2.00;;;;;;;;;;4998322;28;20220;-82
2023/04/15 14:11:20;;;;;;;3.50;1.60;;;;;;;;;;5009030;28;20477;-82
2023/04/15 14:13:46;;;;;;;4.63;1.80;;;;;;;;;;5012813;28;20409;-82
2023/04/15 14:16:12;;;;;;;4.25;1.92;;;;;;;;;;4988196;28;20489;-82
2023/04/15 14:18:39;;;;;;;3.97;1.60;;;;;;;;;;4990035;28;20431;-81
2023/04/15 14:21:06;;;;;;;2.72;1.60;;;;;;;;;;5012012;28;20417;-82
2023/04/15 14:23:32;;;;;;;3.08;1.70;;;;;;;;;;4996726;28;20474;-82
2023/04/15 14:25:58;;;;;;;4.47;1.83;;;;;;;;;;4998834;28;20477;-81
2023/04/15 14:28:24;;;;;;;3.17;1.60;;;;;;;;;;4992622;28;20427;-82
2023/04/15 14:30:50;;;;;;;3.25;1.85;;;;;;;;;;5033418;28;20409;-82
2023/04/15 14:33:16;;;;;;;2.65;1.88;;;;;;;;;;5000944;28;20426;-82